Time;durP1;ratioP1;P1;durP2;ratioP2;P2;SDS_P1;SDS_P2;PMS_P1;PMS_P2;Temp;Humidity;BMP_temperature;BMP_pressure;BME280_temperature;BME280_humidity;BME280_pressure;Samples;Min_cycle;Max_cycle;Signal;HPM_P1;HPM_P2
2022/05/26 00:02:33;;;;;;;;;19.00;17.00;;;;;16.38;59.49;98953.28;6269745;27;97414;-66
2022/05/26 00:05:37;;;;;;;;;18.75;17.00;;;;;16.30;59.54;98959.19;6270115;27;96548;-66
2022/05/26 00:08:40;;;;;;;;;17.60;15.00;;;;;16.31;59.48;98956.22;6269613;27;96939;-68
2022/05/26 00:11:45;;;;;;;;;17.00;14.60;;;;;16.23;59.53;98959.41;6275216;27;97574;-69
2022/05/26 00:14:48;;;;;;;;;18.40;16.60;;;;;16.20;59.58;98959.91;6266091;27;97356;-68
2022/05/26 00:17:52;;;;;;;;;16.75;15.75;;;;;16.13;59.70;98953.84;6287851;27;96280;-66
2022/05/26 00:20:55;;;;;;;;;16.60;15.00;;;;;16.13;59.48;98962.00;6287734;27;96702;-66
2022/05/26 00:23:59;;;;;;;;;15.00;14.00;;;;;16.19;59.45;98958.28;6287287;27;97049;-69
2022/05/26 00:27:07;;;;;;;;;15.40;14.40;;;;;16.18;59.16;98953.06;6288113;27;96723;-68
2022/05/26 00:30:12;;;;;;;;;13.00;12.00;;;;;16.21;59.07;98958.03;6262868;27;98554;-68
2022/05/26 00:33:17;;;;;;;;;13.00;11.00;;;;;16.20;58.82;98962.63;6278667;27;96716;-66
2022/05/26 00:36:37;;;;;;;;;12.60;11.00;;;;;16.18;58.75;98958.50;6287539;27;97332;-68
2022/05/26 00:39:41;;;;;;;;;12.60;11.60;;;;;16.18;58.61;98958.50;6287825;27;96664;-66
2022/05/26 00:42:47;;;;;;;;;12.20;11.20;;;;;16.12;58.70;98945.97;6286738;27;98049;-68
2022/05/26 00:45:55;;;;;;;;;10.80;10.00;;;;;16.18;58.59;98953.06;6285491;27;96870;-68
2022/05/26 00:49:01;;;;;;;;;12.00;11.00;;;;;16.23;58.47;98950.41;6268591;27;96631;-68
2022/05/26 00:52:06;;;;;;;;;12.40;12.00;;;;;16.25;58.24;98965.41;6261225;27;96897;-66
2022/05/26 00:55:15;;;;;;;;;11.50;10.50;;;;;16.24;58.12;98961.03;6281432;27;98352;-66
2022/05/26 00:58:24;;;;;;;;;12.50;12.00;;;;;16.23;57.90;98962.13;6287897;27;97570;-65
2022/05/26 01:01:28;;;;;;;;;16.00;14.60;;;;;16.22;57.79;98959.66;6286779;27;97338;-66
2022/05/26 01:04:37;;;;;;;;;11.00;10.00;;;;;16.20;57.98;98953.66;6285644;27;96381;-69
2022/05/26 01:07:44;;;;;;;;;11.60;11.60;;;;;16.22;57.75;98960.50;6243649;27;100183;-65
2022/05/26 01:10:47;;;;;;;;;13.75;12.00;;;;;16.21;57.71;98958.03;6285304;27;97277;-68
2022/05/26 01:13:56;;;;;;;;;12.00;11.00;;;;;16.18;57.48;98961.25;6268040;27;97388;-67
2022/05/26 01:17:09;;;;;;;;;10.00;9.00;;;;;16.15;57.59;98959.88;6287405;27;97101;-68
2022/05/26 01:20:25;;;;;;;;;12.00;11.75;;;;;16.14;57.58;98957.38;6252633;27;96353;-65
2022/05/26 01:24:12;;;;;;;;;11.40;10.00;;;;;16.09;57.37;98958.16;6287446;27;97507;-66
2022/05/26 01:27:28;;;;;;;;;13.50;11.00;;;;;16.06;57.44;98958.69;6280408;27;98039;-66
2022/05/26 01:30:42;;;;;;;;;12.40;11.40;;;;;16.06;57.35;98961.41;6278272;27;96569;-66
2022/05/26 01:33:53;;;;;;;;;11.00;11.00;;;;;16.00;57.33;98959.69;6285775;27;97378;-65
2022/05/26 01:37:04;;;;;;;;;11.80;10.80;;;;;15.95;57.46;98965.06;6277279;27;97574;-69
2022/05/26 01:40:16;;;;;;;;;11.00;11.00;;;;;15.85;57.64;98946.75;6266446;27;97941;-68
2022/05/26 01:43:29;;;;;;;;;9.00;9.00;;;;;15.69;57.77;98965.84;6267772;27;97890;-68
2022/05/26 01:46:39;;;;;;;;;8.80;7.80;;;;;15.66;57.98;98958.19;6255523;27;97392;-66
2022/05/26 01:49:47;;;;;;;;;7.80;7.80;;;;;15.65;57.80;98964.69;6285719;27;96450;-66
2022/05/26 01:53:01;;;;;;;;;8.00;7.20;;;;;15.65;57.75;98957.38;6286500;27;97524;-68
2022/05/26 01:56:13;;;;;;;;;9.00;9.00;;;;;15.59;57.64;98955.66;6252262;27;97496;-66
2022/05/26 01:59:22;;;;;;;;;8.00;8.00;;;;;15.55;57.61;98973.53;6269008;27;96530;-68
2022/05/26 02:02:31;;;;;;;;;9.00;8.00;;;;;15.55;57.63;98968.09;6284843;27;97573;-69
2022/05/26 02:05:42;;;;;;;;;9.00;8.00;;;;;15.43;57.80;98970.09;6268501;27;96737;-68
2022/05/26 02:08:50;;;;;;;;;11.60;10.00;;;;;15.48;57.79;98979.16;6285822;27;97377;-66
2022/05/26 02:11:58;;;;;;;;;9.00;8.00;;;;;15.42;57.74;98984.75;6269068;27;97261;-67
2022/05/26 02:15:09;;;;;;;;;8.00;7.60;;;;;15.38;57.88;98989.88;6288904;27;97401;-66
2022/05/26 02:18:18;;;;;;;;;9.20;9.20;;;;;15.43;57.88;98989.94;6287916;27;97218;-69
2022/05/26 02:21:36;;;;;;;;;10.00;9.00;;;;;15.43;57.68;98976.38;6266713;27;96498;-69
2022/05/26 02:24:46;;;;;;;;;12.00;10.67;;;;;15.46;57.60;98981.28;6272877;27;97017;-70
2022/05/26 02:27:53;;;;;;;;;9.00;8.00;;;;;15.07;57.59;98925.31;6249703;27;98446;-67
2022/05/26 02:30:59;;;;;;;;;10.40;9.00;;;;;15.43;57.56;98979.06;6267447;27;96714;-67
2022/05/26 02:34:05;;;;;;;;;11.00;9.00;;;;;15.49;57.25;98985.41;6286416;27;97106;-67
2022/05/26 02:37:12;;;;;;;;;8.00;8.00;;;;;15.48;57.26;98981.03;6290092;27;96626;-66
2022/05/26 02:40:16;;;;;;;;;9.00;8.00;;;;;15.50;57.13;98976.97;6270881;27;96706;-67
2022/05/26 02:43:22;;;;;;;;;10.00;9.00;;;;;15.52;57.03;98979.50;6270080;27;96439;-69
2022/05/26 02:46:39;;;;;;;;;10.00;8.60;;;;;15.53;56.90;98978.41;6290300;27;96996;-69
2022/05/26 02:50:07;;;;;;;;;9.00;8.00;;;;;15.44;56.96;98971.75;6271060;27;97287;-67
2022/05/26 02:53:19;;;;;;;;;7.40;6.80;;;;;15.48;56.93;98983.75;6289230;27;96752;-65
2022/05/26 02:56:31;;;;;;;;;8.00;7.00;;;;;15.38;57.22;98972.75;6269673;27;96794;-68
2022/05/26 02:59:42;;;;;;;;;9.00;7.50;;;;;15.49;56.85;98977.25;6281615;27;97454;-69
2022/05/26 03:02:55;;;;;;;;;8.00;7.40;;;;;15.51;56.79;98981.38;6269414;27;97499;-68
2022/05/26 03:06:05;;;;;;;;;7.25;6.50;;;;;15.52;57.06;98979.50;6246275;27;99557;-67
2022/05/26 03:09:11;;;;;;;;;7.00;7.00;;;;;15.67;56.61;98987.03;6270263;27;97027;-66
2022/05/26 03:12:23;;;;;;;;;6.00;6.00;;;;;15.70;56.64;98981.91;6289524;27;98159;-69
2022/05/26 03:15:27;;;;;;;;;6.00;5.00;;;;;15.69;56.88;98982.97;6288376;27;96685;-66
2022/05/26 03:18:31;;;;;;;;;5.00;5.00;;;;;15.72;56.65;98984.38;6269960;27;97349;-66
2022/05/26 03:21:35;;;;;;;;;7.00;7.00;;;;;15.81;56.60;98988.28;6269218;27;96672;-67
2022/05/26 03:24:39;;;;;;;;;6.00;6.00;;;;;15.84;56.52;98987.78;6269230;27;96676;-66
2022/05/26 03:27:43;;;;;;;;;5.60;5.40;;;;;15.93;56.45;98980.84;6288820;27;97440;-68
2022/05/26 03:30:46;;;;;;;;;5.80;5.80;;;;;16.03;56.25;98980.94;6268032;27;99507;-66
2022/05/26 03:44:01;;;;;;;;;6.00;6.00;;;;;16.41;55.62;98985.44;6266452;27;97533;-66
2022/05/26 03:47:06;;;;;;;;;6.00;5.20;;;;;16.46;55.40;98980.03;6285847;27;97093;-69
2022/05/26 03:50:10;;;;;;;;;7.00;5.00;;;;;16.55;55.25;98986.66;6277435;27;96751;-69
2022/05/26 03:53:14;;;;;;;;;6.00;5.00;;;;;16.58;54.93;98991.59;6286306;27;98308;-69
2022/05/26 03:56:19;;;;;;;;;6.00;6.00;;;;;16.66;54.98;98993.06;6287243;27;97557;-66
2022/05/26 03:59:22;;;;;;;;;6.50;5.00;;;;;16.66;54.74;98990.34;6286049;27;96982;-68
2022/05/26 04:02:25;;;;;;;;;8.00;6.40;;;;;16.78;54.65;98994.53;6288451;27;97905;-66
2022/05/26 04:05:29;;;;;;;;;6.00;5.00;;;;;16.77;54.47;98994.78;6264388;27;97091;-68
2022/05/26 04:08:33;;;;;;;;;4.00;4.00;;;;;16.84;54.53;99006.28;6276508;27;97425;-66
2022/05/26 04:11:38;;;;;;;;;5.00;4.00;;;;;16.95;54.11;98999.84;6286594;27;97461;-66
2022/05/26 04:14:41;;;;;;;;;5.00;5.00;;;;;17.13;53.92;98999.44;6288960;27;96450;-67
2022/05/26 04:17:45;;;;;;;;;4.60;4.00;;;;;17.28;53.90;99002.28;6287853;27;97672;-68
2022/05/26 04:20:48;;;;;;;;;5.00;4.00;;;;;17.37;53.59;99002.59;6284734;27;99447;-67
2022/05/26 04:23:51;;;;;;;;;6.00;6.00;;;;;17.44;53.28;98997.75;6269519;27;98551;-66
2022/05/26 04:26:56;;;;;;;;;5.00;4.40;;;;;17.54;53.21;99002.44;6267149;27;99634;-67
2022/05/26 04:30:01;;;;;;;;;8.00;6.00;;;;;17.64;53.09;98997.06;6288796;27;96986;-69
2022/05/26 04:33:04;;;;;;;;;6.00;6.00;;;;;17.74;52.94;98997.91;6270298;27;96922;-67
2022/05/26 04:36:12;;;;;;;;;5.60;5.60;;;;;17.87;52.76;98998.53;6272768;27;96584;-69
2022/05/26 04:39:16;;;;;;;;;6.00;5.00;;;;;17.91;52.59;99005.91;6287577;27;97450;-69
2022/05/26 04:42:21;;;;;;;;;5.20;4.20;;;;;17.92;52.13;98998.56;6263354;27;96593;-67
2022/05/26 04:45:25;;;;;;;;;4.20;4.00;;;;;17.96;51.90;98996.94;6247694;27;99665;-69
2022/05/26 04:48:28;;;;;;;;;4.60;4.40;;;;;17.99;51.88;98996.38;6287982;27;96842;-69
2022/05/26 04:51:34;;;;;;;;;5.00;5.00;;;;;17.99;52.15;98985.47;6288027;27;97369;-67
2022/05/26 04:54:37;;;;;;;;;5.00;5.00;;;;;18.11;52.04;98994.25;6267643;27;98200;-69
2022/05/26 04:57:42;;;;;;;;;4.00;4.00;;;;;18.22;52.28;98993.22;6287929;27;97475;-67
2022/05/26 05:00:46;;;;;;;;;4.20;4.00;;;;;18.32;51.98;98982.31;6286089;27;97070;-66
2022/05/26 05:03:50;;;;;;;;;5.40;4.40;;;;;18.43;51.96;98992.16;6253146;27;97085;-69
2022/05/26 05:06:56;;;;;;;;;5.00;5.00;;;;;18.55;51.49;98992.75;6285891;27;96617;-69
2022/05/26 05:09:59;;;;;;;;;4.00;4.00;;;;;18.67;51.42;98989.75;6288006;27;96529;-69
2022/05/26 05:13:05;;;;;;;;;5.00;5.00;;;;;18.75;50.84;98991.97;6287155;27;96954;-69
2022/05/26 05:16:15;;;;;;;;;5.00;4.40;;;;;18.90;51.14;98993.88;6287183;27;97426;-66
2022/05/26 05:19:19;;;;;;;;;5.50;5.00;;;;;19.00;51.25;98999.34;6270167;27;98008;-67
2022/05/26 05:22:28;;;;;;;;;5.00;4.50;;;;;19.12;50.80;98991.69;6267173;27;97956;-66
2022/05/26 05:25:37;;;;;;;;;5.00;5.00;;;;;19.24;50.76;98992.22;6286224;27;96578;-66
2022/05/26 05:28:47;;;;;;;;;6.00;5.00;;;;;19.38;50.49;98997.94;6287613;27;97403;-67
2022/05/26 05:31:55;;;;;;;;;5.00;4.80;;;;;19.44;50.91;98992.22;6268624;27;97215;-66
2022/05/26 05:35:04;;;;;;;;;6.25;6.00;;;;;19.53;50.28;98995.22;6288051;27;96434;-67
2022/05/26 05:38:08;;;;;;;;;6.40;5.00;;;;;19.69;50.23;98998.72;6262756;27;96408;-68
2022/05/26 05:41:12;;;;;;;;;4.20;4.00;;;;;19.77;50.33;98992.69;6277841;27;97471;-68
2022/05/26 05:44:17;;;;;;;;;7.00;6.00;;;;;19.88;50.51;98997.03;6287906;27;96608;-66
2022/05/26 05:47:20;;;;;;;;;5.40;5.40;;;;;19.93;50.43;98997.00;6289591;27;97330;-66
2022/05/26 05:50:24;;;;;;;;;5.00;4.00;;;;;20.03;51.08;98991.50;6290388;27;97477;-66
2022/05/26 05:53:31;;;;;;;;;5.60;5.00;;;;;20.19;50.48;98998.50;6288590;27;97007;-69
2022/05/26 05:56:34;;;;;;;;;4.00;4.00;;;;;20.37;50.03;98990.78;6271437;27;97571;-66
2022/05/26 05:59:39;;;;;;;;;5.00;4.80;;;;;20.49;50.20;98999.47;6271395;27;96771;-68
2022/05/26 06:02:42;;;;;;;;;4.00;4.00;;;;;20.58;49.73;99001.31;6290265;27;97193;-69
2022/05/26 06:05:46;;;;;;;;;3.00;3.00;;;;;20.73;49.63;98995.75;6244039;27;99572;-67
2022/05/26 06:08:50;;;;;;;;;4.40;4.40;;;;;20.90;49.77;98989.88;6290239;27;96666;-66
2022/05/26 06:11:53;;;;;;;;;5.00;4.40;;;;;21.10;48.93;99000.66;6271388;27;97159;-69
2022/05/26 06:14:58;;;;;;;;;3.20;3.00;;;;;21.11;48.13;99002.28;6263233;27;97848;-67
2022/05/26 06:18:01;;;;;;;;;2.40;2.00;;;;;21.12;48.14;99006.66;6289504;27;96978;-69
2022/05/26 06:21:07;;;;;;;;;2.00;2.00;;;;;21.25;48.08;98998.91;6271165;27;99325;-67
2022/05/26 06:24:11;;;;;;;;;3.00;3.00;;;;;21.45;48.23;98998.72;6287628;27;96960;-67
2022/05/26 06:30:40;;;;;;;;;3.00;2.00;;;;;21.54;46.78;98996.97;6280656;27;97861;-67
2022/05/26 06:37:16;;;;;;;;;4.00;2.80;;;;;21.65;46.91;98994.97;6286876;27;98596;-66
2022/05/26 06:40:19;;;;;;;;;4.00;4.00;;;;;21.72;47.22;98998.97;6289698;27;96763;-67
2022/05/26 06:43:23;;;;;;;;;5.00;4.00;;;;;21.95;46.99;99000.09;6290917;27;96529;-66
2022/05/26 06:46:27;;;;;;;;;3.00;3.00;;;;;22.06;46.70;98998.03;6291285;27;97548;-66
2022/05/26 06:49:33;;;;;;;;;5.00;4.40;;;;;22.12;46.17;98994.13;6272841;27;98802;-68
2022/05/26 06:52:36;;;;;;;;;4.00;4.00;;;;;22.32;46.43;99000.19;6265600;27;97477;-68
2022/05/26 06:55:40;;;;;;;;;5.20;5.00;;;;;22.56;46.20;98994.63;6268938;27;96787;-68
2022/05/26 06:58:43;;;;;;;;;4.00;4.00;;;;;22.74;45.22;98996.56;6288410;27;96545;-66
2022/05/26 07:01:51;;;;;;;;;3.00;3.00;;;;;22.85;44.52;98992.56;6284012;27;97622;-67
2022/05/26 07:04:54;;;;;;;;;5.60;5.00;;;;;22.88;44.45;99002.94;6290477;27;97492;-66
2022/05/26 07:07:57;;;;;;;;;4.00;3.00;;;;;22.87;44.47;99008.75;6290569;27;96948;-66
2022/05/26 07:11:01;;;;;;;;;6.00;5.00;;;;;22.85;44.39;98998.03;6289982;27;97489;-67
2022/05/26 07:14:04;;;;;;;;;4.00;4.00;;;;;23.07;44.96;99011.16;6290032;27;97530;-68
2022/05/26 07:17:09;;;;;;;;;5.00;5.00;;;;;23.21;44.41;99006.50;6290114;27;96492;-69
2022/05/26 07:20:13;;;;;;;;;5.00;5.00;;;;;23.04;44.01;98984.25;6270896;27;97462;-66
2022/05/26 07:23:16;;;;;;;;;6.00;6.00;;;;;23.34;44.40;99024.19;6289511;27;97061;-69
2022/05/26 07:26:21;;;;;;;;;5.80;5.00;;;;;23.45;44.35;99020.19;6271376;27;96904;-68
2022/05/26 07:29:24;;;;;;;;;6.00;6.00;;;;;23.48;43.42;99016.81;6289698;27;97594;-66
2022/05/26 07:32:29;;;;;;;;;5.00;4.20;;;;;23.78;44.53;99017.34;6270801;27;99053;-68
2022/05/26 07:35:32;;;;;;;;;6.00;6.00;;;;;24.22;43.11;99014.84;6289633;27;96678;-68
2022/05/26 07:42:00;;;;;;;;;6.60;5.00;;;;;24.69;41.72;99024.53;6289150;27;96512;-69
2022/05/26 07:45:07;;;;;;;;;5.00;5.00;;;;;24.84;40.84;99024.16;6288490;27;96627;-66
2022/05/26 07:48:12;;;;;;;;;5.00;4.60;;;;;25.14;40.75;99022.66;6270945;27;96682;-69
2022/05/26 07:51:16;;;;;;;;;4.40;4.40;;;;;25.34;40.01;99030.44;6262097;27;97289;-67
2022/05/26 07:54:19;;;;;;;;;4.40;3.80;;;;;25.43;39.64;99028.53;6266572;27;96635;-67
2022/05/26 07:57:25;;;;;;;;;6.00;5.00;;;;;25.42;38.95;99032.41;6264025;27;96484;-69
2022/05/26 08:00:28;;;;;;;;;4.60;4.00;;;;;25.27;38.17;99029.22;6269826;27;97472;-66
2022/05/26 08:03:34;;;;;;;;;4.00;4.00;;;;;25.26;38.61;99027.63;6270924;27;96683;-69
2022/05/26 08:06:38;;;;;;;;;3.20;3.00;;;;;25.49;39.23;99031.97;6289727;27;97740;-67
2022/05/26 08:09:41;;;;;;;;;5.00;5.00;;;;;25.54;37.71;99029.09;6269085;27;99529;-66
2022/05/26 08:12:45;;;;;;;;;3.00;3.00;;;;;25.63;37.71;99035.50;6256617;27;97195;-69
2022/05/26 08:15:49;;;;;;;;;3.60;3.60;;;;;25.61;37.12;99034.97;6273131;27;97213;-66
2022/05/26 08:18:54;;;;;;;;;3.80;3.80;;;;;25.84;37.40;99033.81;6267717;27;97816;-66
2022/05/26 08:21:58;;;;;;;;;3.00;3.00;;;;;26.12;36.25;99022.53;6257718;27;99476;-68
2022/05/26 08:25:02;;;;;;;;;4.00;3.20;;;;;26.50;35.41;99029.16;6270912;27;96882;-68
2022/05/26 08:28:06;;;;;;;;;3.00;3.00;;;;;26.58;33.75;99014.56;6265414;27;96655;-68
2022/05/26 08:31:14;;;;;;;;;3.00;3.00;;;;;26.81;35.23;99031.81;6268182;27;97788;-66
2022/05/26 08:34:20;;;;;;;;;3.00;3.00;;;;;27.03;34.20;99028.88;6288078;27;97524;-68
2022/05/26 08:37:23;;;;;;;;;2.00;2.00;;;;;27.01;34.00;99028.41;6288580;27;96960;-70
2022/05/26 08:40:36;;;;;;;;;3.00;3.00;;;;;27.10;33.56;99032.00;6267277;27;98048;-67
2022/05/26 08:43:44;;;;;;;;;4.00;3.00;;;;;27.15;33.44;99019.94;6267062;27;99704;-65
2022/05/26 08:46:51;;;;;;;;;2.00;2.00;;;;;27.56;33.21;99031.28;6267942;27;98367;-68
2022/05/26 08:50:03;;;;;;;;;3.00;3.00;;;;;27.85;33.00;99036.09;6265419;27;98390;-66
2022/05/26 08:53:11;;;;;;;;;3.00;3.00;;;;;28.34;31.32;99026.28;6285049;27;97443;-66
2022/05/26 08:56:22;;;;;;;;;2.00;2.00;;;;;28.63;31.72;99028.19;6286365;27;96829;-68
2022/05/26 08:59:33;;;;;;;;;3.00;3.00;;;;;28.74;30.61;99025.84;6266402;27;96741;-68
2022/05/26 09:02:38;;;;;;;;;3.80;3.00;;;;;28.61;31.14;99021.34;6283717;27;96671;-66
2022/05/26 09:05:46;;;;;;;;;2.00;2.00;;;;;28.84;28.99;99031.81;6285225;27;96834;-66
2022/05/26 09:15:38;;;;;;;;;2.40;2.40;;;;;28.68;29.10;99022.44;6268735;27;96546;-68
2022/05/26 09:18:43;;;;;;;;;2.00;2.00;;;;;28.85;28.42;99015.97;6288088;27;97488;-69
2022/05/26 09:21:50;;;;;;;;;2.00;2.00;;;;;28.58;27.46;99013.72;6287628;27;98058;-68
2022/05/26 09:24:54;;;;;;;;;3.00;3.00;;;;;28.83;27.49;99021.06;6269364;27;97243;-66
2022/05/26 09:27:57;;;;;;;;;2.00;2.00;;;;;29.04;27.20;99010.75;6269970;27;97136;-66
2022/05/26 09:31:21;;;;;;;;;2.00;2.00;;;;;29.11;28.04;99024.06;6286000;27;97291;-69
2022/05/26 09:34:27;;;;;;;;;3.00;2.40;;;;;29.22;27.91;99014.19;6267968;27;97326;-67
2022/05/26 09:37:49;;;;;;;;;2.60;2.00;;;;;28.56;28.17;99016.00;6287663;27;97415;-68
2022/05/26 09:40:52;;;;;;;;;2.00;2.00;;;;;28.73;27.07;99013.97;6287874;27;96631;-70
2022/05/26 09:44:00;;;;;;;;;2.00;2.00;;;;;28.77;25.87;99016.88;6288146;27;96542;-67
2022/05/26 09:47:11;;;;;;;;;2.00;2.00;;;;;28.79;27.53;99012.59;6243699;27;98567;-70
2022/05/26 09:50:37;;;;;;;;;1.00;1.00;;;;;28.60;26.48;98994.75;6278510;27;96551;-67
2022/05/26 09:53:44;;;;;;;;;1.00;1.00;;;;;28.27;26.76;99014.06;6287329;27;97015;-66
2022/05/26 09:56:47;;;;;;;;;2.00;2.00;;;;;28.10;27.01;99014.94;6287452;27;96678;-68
2022/05/26 09:59:50;;;;;;;;;1.75;1.75;;;;;28.01;26.45;98990.03;6268715;27;97535;-68
2022/05/26 10:02:54;;;;;;;;;2.00;2.00;;;;;28.31;26.87;99004.75;6264929;27;97064;-68
2022/05/26 10:06:11;;;;;;;;;1.00;1.00;;;;;28.24;26.95;98998.94;6265165;27;96682;-69
2022/05/26 10:09:25;;;;;;;;;2.00;2.00;;;;;28.15;27.13;98998.13;6277447;27;97250;-69
2022/05/26 10:12:39;;;;;;;;;2.00;1.80;;;;;28.37;26.80;99003.41;6285811;27;97218;-68
2022/05/26 10:15:53;;;;;;;;;2.00;2.00;;;;;28.05;25.27;98995.75;6266879;27;96391;-66
2022/05/26 10:19:12;;;;;;;;;2.00;2.00;;;;;28.43;25.82;98993.75;6282342;27;97200;-68
2022/05/26 10:22:29;;;;;;;;;2.00;2.00;;;;;27.86;25.89;98976.75;6280345;27;98117;-66
2022/05/26 10:25:43;;;;;;;;;2.00;1.00;;;;;27.89;26.10;99001.03;6282795;27;96870;-67
2022/05/26 10:29:07;;;;;;;;;2.00;2.00;;;;;27.74;26.14;99007.13;6287055;27;97386;-65
2022/05/26 10:32:19;;;;;;;;;1.00;1.00;;;;;27.79;26.66;99006.13;6287312;27;96342;-65
2022/05/26 10:35:27;;;;;;;;;2.00;1.00;;;;;27.94;26.67;99003.63;6291355;27;97439;-67
2022/05/26 10:38:49;;;;;;;;;2.00;2.00;;;;;28.03;26.31;99006.34;6291517;27;97564;-66
2022/05/26 10:42:00;;;;;;;;;2.00;2.00;;;;;27.93;26.75;98988.13;6289434;27;96452;-66
2022/05/26 10:45:14;;;;;;;;;1.00;1.00;;;;;28.04;26.12;99005.19;6291338;27;96399;-67
2022/05/26 10:48:25;;;;;;;;;2.40;2.40;;;;;27.97;25.83;99002.13;6271531;27;96642;-67
2022/05/26 10:51:36;;;;;;;;;1.00;1.00;;;;;28.01;25.91;99006.66;6287415;27;97405;-66
2022/05/26 10:54:47;;;;;;;;;2.00;2.00;;;;;28.00;25.67;99001.47;6271611;27;96783;-66
2022/05/26 10:58:00;;;;;;;;;1.40;1.40;;;;;27.91;25.97;99003.44;6289951;27;96428;-68
2022/05/26 11:01:09;;;;;;;;;1.00;1.00;;;;;28.14;26.79;99015.13;6289440;27;96464;-66
2022/05/26 11:04:22;;;;;;;;;2.00;2.00;;;;;28.20;26.36;99000.72;6290697;27;96465;-70
2022/05/26 11:07:34;;;;;;;;;1.60;1.60;;;;;28.17;26.15;98992.28;6290208;27;97478;-70
2022/05/26 11:10:45;;;;;;;;;2.00;2.00;;;;;28.01;25.99;98992.00;6269014;27;97487;-69
2022/05/26 11:13:55;;;;;;;;;3.00;3.00;;;;;28.12;26.51;98998.81;6267874;27;97472;-70
2022/05/26 11:20:24;;;;;;;;;1.00;1.00;;;;;28.47;26.19;98996.66;6263326;27;96901;-67
2022/05/26 11:23:32;;;;;;;;;2.00;2.00;;;;;28.61;26.14;99002.75;6272313;27;96697;-67
2022/05/26 11:26:43;;;;;;;;;1.00;1.00;;;;;28.71;25.25;98987.66;6252719;27;99686;-68
2022/05/26 11:29:52;;;;;;;;;2.00;2.00;;;;;29.02;26.16;98993.63;6270650;27;97157;-69
2022/05/26 11:36:22;;;;;;;;;1.20;1.00;;;;;28.85;24.16;98996.53;6290150;27;96563;-70
2022/05/26 11:39:30;;;;;;;;;2.00;2.00;;;;;28.91;24.58;98994.38;6270746;27;99995;-66
2022/05/26 11:42:35;;;;;;;;;3.00;2.00;;;;;28.59;24.98;98991.16;6271265;27;96580;-70
2022/05/26 11:45:51;;;;;;;;;2.00;2.00;;;;;28.77;25.08;98986.34;6270434;27;97907;-66
2022/05/26 11:48:54;;;;;;;;;1.00;1.00;;;;;28.94;24.37;99002.81;6269312;27;98333;-68
2022/05/26 11:51:57;;;;;;;;;1.00;1.00;;;;;28.71;24.70;98988.50;6269103;27;97437;-73
2022/05/26 11:55:17;;;;;;;;;2.40;2.40;;;;;28.75;25.26;98983.06;6269251;27;98805;-72
2022/05/26 11:58:33;;;;;;;;;1.00;1.00;;;;;28.66;25.58;98988.69;6290960;27;96908;-71
2022/05/26 12:01:39;;;;;;;;;2.00;2.00;;;;;28.70;25.45;98986.84;6253723;27;98530;-70
2022/05/26 12:04:45;;;;;;;;;2.00;2.00;;;;;29.08;25.61;98977.53;6283485;27;97757;-66
2022/05/26 12:07:50;;;;;;;;;2.60;2.60;;;;;28.54;24.81;98977.50;6265051;27;97473;-64
2022/05/26 12:10:56;;;;;;;;;1.00;1.00;;;;;27.90;25.59;98979.69;6256897;27;97228;-66
2022/05/26 12:14:03;;;;;;;;;2.00;2.00;;;;;28.12;26.65;98973.88;6266219;27;96767;-66
2022/05/26 12:17:34;;;;;;;;;2.80;2.00;;;;;28.20;26.40;98970.22;6281468;27;96621;-64
2022/05/26 12:20:42;;;;;;;;;2.00;1.00;;;;;28.11;25.94;98969.47;6280136;27;98799;-64
2022/05/26 12:23:46;;;;;;;;;2.00;1.33;;;;;27.92;26.13;98977.38;6270821;27;96867;-66
2022/05/26 12:26:51;;;;;;;;;2.00;2.00;;;;;27.98;27.33;98981.59;6288413;27;96931;-66
2022/05/26 12:30:05;;;;;;;;;1.00;1.00;;;;;27.87;26.67;98983.91;6289088;27;96462;-66
2022/05/26 12:33:30;;;;;;;;;1.00;1.00;;;;;27.84;26.24;98964.38;6270736;27;97536;-66
2022/05/26 12:36:50;;;;;;;;;1.00;1.00;;;;;27.91;26.24;98982.09;6289456;27;96771;-65
2022/05/26 12:40:35;;;;;;;;;1.00;1.00;;;;;27.88;26.86;98971.69;6263723;27;96452;-64
2022/05/26 12:43:56;;;;;;;;;1.00;1.00;;;;;27.93;27.17;98957.66;6245320;27;97014;-66
2022/05/26 12:47:16;;;;;;;;;2.00;2.00;;;;;27.87;27.11;98966.47;6244647;27;97818;-65
2022/05/26 12:50:25;;;;;;;;;1.40;1.40;;;;;28.11;26.55;98955.59;6287813;27;97436;-66
2022/05/26 12:53:32;;;;;;;;;1.00;1.00;;;;;28.49;26.01;98961.09;6278060;27;97122;-69
2022/05/26 12:56:50;;;;;;;;;1.00;1.00;;;;;28.52;26.22;98957.63;6285400;27;98054;-66
2022/05/26 13:00:23;;;;;;;;;0.00;0.00;;;;;28.63;26.23;98961.63;6271641;27;96623;-68
2022/05/26 13:03:32;;;;;;;;;1.00;1.00;;;;;28.47;26.48;98954.22;6264711;27;97783;-66
2022/05/26 13:06:40;;;;;;;;;1.00;1.00;;;;;28.02;26.60;98952.88;6288476;27;96491;-66
2022/05/26 13:09:47;;;;;;;;;1.00;1.00;;;;;28.12;26.98;98945.34;6287477;27;96613;-68
2022/05/26 13:12:51;;;;;;;;;1.40;1.00;;;;;28.08;26.86;98945.19;6251996;27;97781;-66
2022/05/26 13:15:54;;;;;;;;;2.00;2.00;;;;;28.32;26.83;98950.91;6269681;27;98002;-66
2022/05/26 13:19:11;;;;;;;;;1.00;1.00;;;;;28.08;26.77;98950.72;6288306;27;97402;-66
2022/05/26 13:22:23;;;;;;;;;1.00;1.00;;;;;28.00;26.79;98946.84;6288240;27;96878;-64
2022/05/26 13:25:31;;;;;;;;;2.00;2.00;;;;;27.45;27.48;98949.69;6269972;27;97472;-68
2022/05/26 13:28:39;;;;;;;;;1.00;1.00;;;;;27.63;28.28;98947.69;6269251;27;97744;-66
2022/05/26 13:35:20;;;;;;;;;2.00;2.00;;;;;27.12;28.86;98951.41;6270232;27;98065;-66
2022/05/26 13:38:29;;;;;;;;;2.00;1.00;;;;;27.06;28.91;98949.97;6275805;27;97458;-67
2022/05/26 13:41:34;;;;;;;;;2.00;2.00;;;;;26.99;29.54;98952.41;6250468;27;96854;-67
2022/05/26 13:44:41;;;;;;;;;1.00;1.00;;;;;26.81;29.73;98936.94;6283647;27;98262;-65
2022/05/26 13:47:45;;;;;;;;;2.00;2.00;;;;;26.60;30.01;98948.66;6260738;27;99058;-64
2022/05/26 13:50:51;;;;;;;;;2.00;2.00;;;;;26.54;29.97;98935.31;6287519;27;97539;-67
2022/05/26 13:54:14;;;;;;;;;2.00;1.00;;;;;26.48;30.23;98937.44;6245150;27;98377;-66
2022/05/26 13:57:21;;;;;;;;;3.00;2.00;;;;;26.33;30.34;98940.69;6264664;27;97211;-67
2022/05/26 14:00:28;;;;;;;;;3.00;3.00;;;;;26.38;30.70;98951.59;6265116;27;98484;-67
2022/05/26 14:03:34;;;;;;;;;3.00;2.00;;;;;26.33;30.25;98932.41;6266303;27;98534;-69
2022/05/26 14:06:37;;;;;;;;;2.00;2.00;;;;;26.66;30.45;98928.00;6261642;27;96730;-65
2022/05/26 14:09:42;;;;;;;;;2.00;2.00;;;;;26.90;29.90;98940.53;6288360;27;97029;-66
2022/05/26 14:12:58;;;;;;;;;2.00;2.00;;;;;26.89;29.48;98934.19;6268809;27;98144;-69
2022/05/26 14:16:21;;;;;;;;;2.00;2.00;;;;;26.93;30.13;98929.63;6265647;27;97052;-64
2022/05/26 14:19:32;;;;;;;;;3.00;2.00;;;;;27.13;29.93;98941.94;6291860;27;97715;-66
2022/05/26 14:22:36;;;;;;;;;2.00;2.00;;;;;27.27;29.82;98942.56;6252849;27;99639;-67
2022/05/26 14:25:41;;;;;;;;;1.25;1.25;;;;;27.26;29.30;98945.69;6286615;27;96813;-67
2022/05/26 14:28:44;;;;;;;;;1.00;1.00;;;;;26.99;29.91;98944.09;6272347;27;97721;-65
2022/05/26 14:31:57;;;;;;;;;2.00;2.00;;;;;26.83;30.18;98929.13;6272421;27;96709;-66
2022/05/26 14:35:04;;;;;;;;;1.00;1.00;;;;;26.39;30.83;98935.81;6269719;27;97044;-67
2022/05/26 14:38:07;;;;;;;;;5.00;3.00;;;;;26.45;30.84;98937.25;6291306;27;97457;-66
2022/05/26 14:41:12;;;;;;;;;2.00;2.00;;;;;26.12;32.05;98937.69;6289094;27;96760;-68
2022/05/26 14:44:16;;;;;;;;;2.00;2.00;;;;;26.29;31.64;98939.72;6286308;27;98216;-68
2022/05/26 14:47:19;;;;;;;;;2.00;2.00;;;;;26.45;31.15;98942.78;6265145;27;96685;-66
2022/05/26 14:50:22;;;;;;;;;2.00;1.00;;;;;26.71;30.76;98927.03;6247879;27;97395;-67
2022/05/26 14:56:47;;;;;;;;;1.00;1.00;;;;;26.75;29.48;98928.00;6272286;27;97982;-68
2022/05/26 14:59:51;;;;;;;;;1.80;1.00;;;;;26.76;29.84;98926.03;6288582;27;97767;-66
2022/05/26 15:02:55;;;;;;;;;1.00;1.00;;;;;26.88;30.40;98931.75;6270877;27;98392;-68
2022/05/26 15:05:59;;;;;;;;;1.00;1.00;;;;;26.61;29.68;98911.56;6286045;27;96891;-67
2022/05/26 15:09:03;;;;;;;;;1.00;1.00;;;;;26.50;29.81;98907.50;6270776;27;98329;-67
2022/05/26 15:12:09;;;;;;;;;0.00;0.00;;;;;26.67;29.23;98926.88;6288537;27;97120;-68
2022/05/26 15:15:15;;;;;;;;;2.00;1.00;;;;;26.55;29.48;98901.00;6263560;27;97763;-68
2022/05/26 15:18:18;;;;;;;;;0.20;0.20;;;;;26.63;29.32;98914.81;6289734;27;96475;-67
2022/05/26 15:21:22;;;;;;;;;1.00;0.80;;;;;26.50;28.99;98921.31;6286224;27;97277;-67
2022/05/26 15:24:26;;;;;;;;;1.00;1.00;;;;;26.16;29.21;98879.81;6270002;27;97819;-66